CLD2 weather

Edmonton / Leduc Heliport
Leduc, Alberta, Canada

Public forecast

Using degrees Celsius for public forecast. Weather courtesy of forecast.io.

METAR (pilot weather report)

Closest report is Edmonton International Airport, 3.6 nm (6.8 km) NNW. Retrieved 2019/07/18 23:37 UTC (0 seconds ago):

CYEG 182337Z CCA 27010KT 20SM -SHRA FEW016 BKN042 OVC080 13/11 A2958 RMK CU1SC6AC1 CVCTV CLD EMBD SLP027 DENSITY ALT 3200FT

TAF (pilot weather forecast)

Closest forecast is Edmonton International Airport, 3.6 nm (6.8 km) NNW. Retrieved 2019/07/18 21:40 UTC (2 hours ago):

TAF CYEG 182038Z 1821/1918 28015G25KT P6SM -SHRA SCT008 OVC025 TEMPO 1821/1904 21/2SM -SHRA BR OVC008 FM190400 27012KT 4SM -SHRA BR SCT006 OVC012 TEMPO 1904/1918 11/2SM -SHRA BR OVC006 RMK NXT FCST BY 190000Z